createdAt,value
2023-05-02T00:00:28.862Z,0.00
2023-05-02T00:01:28.924Z,0.00
2023-05-02T00:02:29.064Z,0.00
2023-05-02T00:03:29.056Z,0.00
2023-05-02T00:04:29.065Z,0.00
2023-05-02T00:05:29.018Z,0.00
2023-05-02T00:06:29.067Z,0.00
2023-05-02T00:07:29.097Z,0.00
2023-05-02T00:08:29.121Z,0.00
2023-05-02T00:09:29.137Z,0.00
2023-05-02T00:10:29.175Z,0.00
2023-05-02T00:11:29.219Z,0.00
2023-05-02T00:12:29.261Z,0.00
2023-05-02T00:13:29.277Z,0.00
2023-05-02T00:14:29.308Z,0.00
2023-05-02T00:15:29.353Z,0.00
2023-05-02T00:16:29.464Z,0.00
2023-05-02T00:17:29.492Z,0.00
2023-05-02T00:18:29.448Z,0.00
2023-05-02T00:19:29.534Z,0.00
2023-05-02T00:20:29.545Z,0.00
2023-05-02T00:21:29.555Z,0.00
2023-05-02T00:22:29.582Z,0.00
2023-05-02T00:23:29.632Z,0.00
2023-05-02T00:24:29.630Z,0.00
2023-05-02T00:25:29.684Z,0.00
2023-05-02T00:26:29.709Z,0.00
2023-05-02T00:27:29.737Z,0.00
2023-05-02T00:28:29.761Z,0.00
2023-05-02T00:29:29.828Z,0.00
2023-05-02T00:30:29.863Z,0.00
2023-05-02T00:31:29.932Z,0.00
2023-05-02T00:32:29.992Z,0.00
2023-05-02T00:33:29.953Z,0.00
2023-05-02T00:34:29.978Z,0.00
2023-05-02T00:35:30.010Z,0.00
2023-05-02T00:36:30.040Z,0.00
2023-05-02T00:37:30.074Z,0.00
2023-05-02T00:38:30.114Z,0.00
2023-05-02T00:39:30.146Z,0.00
2023-05-02T00:40:30.162Z,0.00
2023-05-02T00:41:30.214Z,0.00
2023-05-02T00:42:30.238Z,0.00
2023-05-02T00:43:30.273Z,0.00
2023-05-02T00:44:30.309Z,0.00
2023-05-02T00:45:30.337Z,0.00
2023-05-02T00:46:30.415Z,0.00
2023-05-02T00:47:30.504Z,0.00
2023-05-02T00:48:30.442Z,0.00
2023-05-02T00:49:30.482Z,0.00
2023-05-02T00:50:30.495Z,0.00
2023-05-02T00:51:30.542Z,0.00
2023-05-02T00:52:30.558Z,0.00
2023-05-02T00:53:30.594Z,0.00
2023-05-02T00:54:30.641Z,0.00
2023-05-02T00:55:30.667Z,0.00
2023-05-02T00:56:30.704Z,0.00
2023-05-02T00:57:30.725Z,0.00
2023-05-02T00:58:30.774Z,0.00
2023-05-02T00:59:30.801Z,0.00
2023-05-02T01:00:30.839Z,0.00
2023-05-02T01:01:30.893Z,0.00
2023-05-02T01:02:30.955Z,0.00
2023-05-02T01:03:31.040Z,0.00
2023-05-02T01:04:31.016Z,0.00
2023-05-02T01:05:30.998Z,0.00
2023-05-02T01:06:31.024Z,0.00
2023-05-02T01:07:31.070Z,0.00
2023-05-02T01:08:31.097Z,0.00
2023-05-02T01:09:31.122Z,0.00
2023-05-02T01:10:31.165Z,0.00
2023-05-02T01:11:31.193Z,0.00
2023-05-02T01:12:31.226Z,0.00
2023-05-02T01:13:31.244Z,0.00
2023-05-02T01:14:31.287Z,0.00
2023-05-02T01:15:31.319Z,0.00
2023-05-02T01:16:31.418Z,0.00
2023-05-02T01:17:31.392Z,0.00
2023-05-02T01:18:31.415Z,0.00
2023-05-02T01:19:31.458Z,0.00
2023-05-02T01:20:31.489Z,0.00
2023-05-02T01:21:31.528Z,0.00
2023-05-02T01:22:31.555Z,0.00
2023-05-02T01:23:31.602Z,0.00
2023-05-02T01:24:31.620Z,0.00
2023-05-02T01:25:31.673Z,0.00
2023-05-02T01:26:31.682Z,0.00
2023-05-02T01:27:31.717Z,0.00
2023-05-02T01:28:31.791Z,0.00
2023-05-02T01:29:31.779Z,0.00
2023-05-02T01:30:31.820Z,0.00
2023-05-02T01:31:31.903Z,0.00
2023-05-02T01:32:31.920Z,0.00
2023-05-02T01:33:31.924Z,0.00
2023-05-02T01:34:31.959Z,0.00
2023-05-02T01:35:31.978Z,0.00
2023-05-02T01:36:32.042Z,0.00
2023-05-02T01:37:32.054Z,0.00
2023-05-02T01:38:32.084Z,0.00
2023-05-02T01:39:32.136Z,0.00
2023-05-02T01:40:32.153Z,0.00
2023-05-02T01:41:32.206Z,0.00
2023-05-02T01:42:32.205Z,0.00
2023-05-02T01:43:32.246Z,0.00
2023-05-02T01:44:32.293Z,0.00
2023-05-02T01:45:32.338Z,0.00
2023-05-02T01:46:32.379Z,0.00
2023-05-02T01:47:32.432Z,0.00
2023-05-02T01:48:32.416Z,0.00
2023-05-02T01:49:32.449Z,0.00
2023-05-02T01:50:32.479Z,0.00
2023-05-02T01:51:32.502Z,0.00
2023-05-02T01:52:32.570Z,0.00
2023-05-02T01:53:32.584Z,0.00
2023-05-02T01:54:32.636Z,0.00
2023-05-02T01:55:32.646Z,0.00
2023-05-02T01:56:32.677Z,0.00
2023-05-02T01:57:32.699Z,0.00
2023-05-02T01:58:32.745Z,0.00
2023-05-02T01:59:32.776Z,0.00
2023-05-02T02:00:32.818Z,0.00
2023-05-02T02:01:32.955Z,0.00
2023-05-02T02:02:32.866Z,0.00
2023-05-02T02:03:32.928Z,0.00
2023-05-02T02:04:33.009Z,0.00
2023-05-02T02:05:32.974Z,0.00
2023-05-02T02:06:33.060Z,0.00
2023-05-02T02:07:33.029Z,0.00
2023-05-02T02:08:33.069Z,0.00
2023-05-02T02:09:33.121Z,0.00
2023-05-02T02:10:33.145Z,0.00
2023-05-02T02:11:33.168Z,0.00
2023-05-02T02:12:33.203Z,0.00
2023-05-02T02:13:33.238Z,0.00
2023-05-02T02:14:33.266Z,0.00
2023-05-02T02:15:33.296Z,0.00
2023-05-02T02:16:33.348Z,0.00
2023-05-02T02:17:33.424Z,0.00
2023-05-02T02:18:33.400Z,0.00
2023-05-02T02:19:33.449Z,0.00
2023-05-02T02:20:33.457Z,0.00
2023-05-02T02:21:33.489Z,0.00
2023-05-02T02:22:33.523Z,0.00
2023-05-02T02:23:33.667Z,0.00
2023-05-02T02:24:33.587Z,0.00
2023-05-02T02:25:33.617Z,0.00
2023-05-02T02:26:33.655Z,0.00
2023-05-02T02:27:33.687Z,0.00
2023-05-02T02:28:33.717Z,0.00
2023-05-02T02:29:33.754Z,0.00
2023-05-02T02:30:33.834Z,0.00
2023-05-02T02:31:33.947Z,0.00
2023-05-02T02:32:33.881Z,0.00
2023-05-02T02:33:33.870Z,0.00
2023-05-02T02:34:33.908Z,0.00
2023-05-02T02:35:33.944Z,0.00
2023-05-02T02:36:33.976Z,0.00
2023-05-02T02:37:34.011Z,0.00
2023-05-02T02:38:34.029Z,0.00
2023-05-02T02:39:34.075Z,0.00
2023-05-02T02:40:34.093Z,0.00
2023-05-02T02:41:34.146Z,0.00
2023-05-02T02:42:34.172Z,0.00
2023-05-02T02:43:34.208Z,0.00
2023-05-02T02:44:34.234Z,0.00
2023-05-02T02:45:34.258Z,0.00
2023-05-02T02:46:34.410Z,0.00
2023-05-02T02:47:34.382Z,0.00
2023-05-02T02:48:34.351Z,0.00
2023-05-02T02:49:34.397Z,0.00
2023-05-02T02:50:34.426Z,0.00
2023-05-02T02:51:34.463Z,0.00
2023-05-02T02:52:34.481Z,0.00
2023-05-02T02:53:34.526Z,0.00
2023-05-02T02:54:34.558Z,0.00
2023-05-02T02:55:34.592Z,0.00
2023-05-02T02:56:34.627Z,0.00
2023-05-02T02:57:34.662Z,0.00
2023-05-02T02:58:34.682Z,0.00
2023-05-02T02:59:34.712Z,0.00
2023-05-02T03:00:34.751Z,0.00
2023-05-02T03:01:34.810Z,0.00
2023-05-02T03:02:34.836Z,0.00
2023-05-02T03:03:35.004Z,0.00
2023-05-02T03:04:34.881Z,0.00
2023-05-02T03:05:34.924Z,0.00
2023-05-02T03:06:34.969Z,0.00
2023-05-02T03:07:34.983Z,0.00
2023-05-02T03:08:34.998Z,0.00
2023-05-02T03:09:35.030Z,0.00
2023-05-02T03:10:35.077Z,0.00
2023-05-02T03:11:35.121Z,0.00
2023-05-02T03:12:35.149Z,0.00
2023-05-02T03:13:35.330Z,0.00
2023-05-02T03:14:35.196Z,0.00
2023-05-02T03:15:35.244Z,0.00
2023-05-02T03:16:35.362Z,0.00
2023-05-02T03:17:35.318Z,0.00
2023-05-02T03:18:35.330Z,0.00
2023-05-02T03:19:35.363Z,0.00
2023-05-02T03:20:35.396Z,0.00
2023-05-02T03:21:35.488Z,0.00
2023-05-02T03:22:35.462Z,0.00
2023-05-02T03:23:35.489Z,0.00
2023-05-02T03:24:35.526Z,0.00
2023-05-02T03:25:35.554Z,0.00
2023-05-02T03:26:35.592Z,0.00
2023-05-02T03:27:35.617Z,0.00
2023-05-02T03:28:35.661Z,0.00
2023-05-02T03:29:35.698Z,0.00
2023-05-02T03:30:35.696Z,0.00
2023-05-02T03:31:35.776Z,0.00
2023-05-02T03:32:35.819Z,0.00
2023-05-02T03:33:35.813Z,0.00
2023-05-02T03:34:35.841Z,0.00
2023-05-02T03:35:35.870Z,0.00
2023-05-02T03:36:35.908Z,0.00
2023-05-02T03:37:35.939Z,0.00
2023-05-02T03:38:35.974Z,0.00
2023-05-02T03:39:36.010Z,0.00
2023-05-02T03:40:36.041Z,0.00
2023-05-02T03:41:36.076Z,0.00
2023-05-02T03:42:36.093Z,0.00
2023-05-02T03:43:36.136Z,0.00
2023-05-02T03:44:36.160Z,0.00
2023-05-02T03:45:36.205Z,0.00
2023-05-02T03:46:36.278Z,0.00
2023-05-02T03:47:36.282Z,0.00
2023-05-02T03:48:36.277Z,0.00
2023-05-02T03:49:36.326Z,0.00
2023-05-02T03:50:36.352Z,0.00
2023-05-02T03:51:36.392Z,0.00
2023-05-02T03:52:36.419Z,0.00
2023-05-02T03:53:36.441Z,0.00
2023-05-02T03:54:36.484Z,0.00
2023-05-02T03:55:36.511Z,0.00
2023-05-02T03:56:36.554Z,0.00
2023-05-02T03:57:36.582Z,0.00
2023-05-02T03:58:36.601Z,0.00
2023-05-02T03:59:36.642Z,0.00
2023-05-02T04:00:36.676Z,0.00
2023-05-02T04:01:36.807Z,0.00
2023-05-02T04:02:36.969Z,0.00
2023-05-02T04:03:36.856Z,0.00
2023-05-02T04:04:36.946Z,0.00
2023-05-02T04:05:36.854Z,0.00
2023-05-02T04:06:36.904Z,0.00
2023-05-02T04:07:36.913Z,0.00
2023-05-02T04:08:36.975Z,0.00
2023-05-02T04:09:36.968Z,0.00
2023-05-02T04:10:36.998Z,0.00
2023-05-02T04:11:37.050Z,0.00
2023-05-02T04:12:37.108Z,0.00
2023-05-02T04:13:37.177Z,0.00
2023-05-02T04:14:37.137Z,0.00
2023-05-02T04:15:37.178Z,0.00
2023-05-02T04:16:37.223Z,0.00
2023-05-02T04:17:37.262Z,0.00
2023-05-02T04:18:37.240Z,0.00
2023-05-02T04:19:37.280Z,0.00
2023-05-02T04:20:37.302Z,0.00
2023-05-02T04:21:37.331Z,0.00
2023-05-02T04:22:37.374Z,0.00
2023-05-02T04:23:37.412Z,0.00
2023-05-02T04:24:37.457Z,0.00
2023-05-02T04:25:37.476Z,0.00
2023-05-02T04:26:37.501Z,0.00
2023-05-02T04:27:37.566Z,0.00
2023-05-02T04:28:37.572Z,0.00
2023-05-02T04:29:37.618Z,0.00
2023-05-02T04:30:37.664Z,0.00
2023-05-02T04:31:37.667Z,0.00
2023-05-02T04:32:37.736Z,0.00
2023-05-02T04:33:37.733Z,0.00
2023-05-02T04:34:37.754Z,0.00
2023-05-02T04:35:37.791Z,0.00
2023-05-02T04:36:37.806Z,0.00
2023-05-02T04:37:38.112Z,0.00
2023-05-02T04:38:37.884Z,0.00
2023-05-02T04:39:37.925Z,0.00
2023-05-02T04:40:37.941Z,0.00
2023-05-02T04:41:37.971Z,0.00
2023-05-02T04:42:38.009Z,0.00
2023-05-02T04:43:38.033Z,0.00
2023-05-02T04:44:38.067Z,0.00
2023-05-02T04:45:38.101Z,0.00
2023-05-02T04:46:38.263Z,0.00
2023-05-02T04:47:38.174Z,0.00
2023-05-02T04:48:38.218Z,0.00
2023-05-02T04:49:38.230Z,0.00
2023-05-02T04:50:38.266Z,0.00
2023-05-02T04:51:38.296Z,0.00
2023-05-02T04:52:38.342Z,0.00
2023-05-02T04:53:38.360Z,0.00
2023-05-02T04:54:38.382Z,0.00
2023-05-02T04:55:38.405Z,0.00
2023-05-02T04:56:38.458Z,0.00
2023-05-02T04:57:38.480Z,0.00
2023-05-02T04:58:38.537Z,0.00
2023-05-02T04:59:38.598Z,0.00
2023-05-02T05:00:38.586Z,0.00
2023-05-02T05:01:38.669Z,0.00
2023-05-02T05:02:38.725Z,0.00
2023-05-02T05:03:38.784Z,0.00
2023-05-02T05:04:38.707Z,0.00
2023-05-02T05:05:38.792Z,0.00
2023-05-02T05:06:38.839Z,0.00
2023-05-02T05:07:38.798Z,0.00
2023-05-02T05:08:38.825Z,0.00
2023-05-02T05:09:38.870Z,0.00
2023-05-02T05:10:38.898Z,0.00
2023-05-02T05:11:38.924Z,0.00
2023-05-02T05:12:38.966Z,0.00
2023-05-02T05:13:38.996Z,0.00
2023-05-02T05:14:39.015Z,5.63
2023-05-02T05:15:39.059Z,5.63
2023-05-02T05:16:39.185Z,5.63
2023-05-02T05:17:39.163Z,0.00
2023-05-02T05:18:39.152Z,0.00
2023-05-02T05:19:39.202Z,0.00
2023-05-02T05:20:39.219Z,5.63
2023-05-02T05:21:39.255Z,5.63
2023-05-02T05:22:39.265Z,5.63
2023-05-02T05:23:39.306Z,5.63
2023-05-02T05:24:39.339Z,5.63
2023-05-02T05:25:39.380Z,5.63
2023-05-02T05:26:39.412Z,5.63
2023-05-02T05:27:39.618Z,5.63
2023-05-02T05:28:39.467Z,5.63
2023-05-02T05:29:39.503Z,5.63
2023-05-02T05:30:39.550Z,5.63
2023-05-02T05:31:39.632Z,5.63
2023-05-02T05:32:39.651Z,5.63
2023-05-02T05:33:39.651Z,5.63
2023-05-02T05:34:39.660Z,5.63
2023-05-02T05:35:39.678Z,5.63
2023-05-02T05:36:39.723Z,5.63
2023-05-02T05:37:39.751Z,5.63
2023-05-02T05:38:39.788Z,5.63
2023-05-02T05:39:46.956Z,5.63
2023-05-02T05:41:43.857Z,5.63
2023-05-02T05:42:43.861Z,5.63
2023-05-02T05:43:43.894Z,5.63
2023-05-02T05:44:43.934Z,5.63
2023-05-02T05:45:43.974Z,5.63
2023-05-02T05:46:44.028Z,5.63
2023-05-02T05:47:44.055Z,5.63
2023-05-02T05:48:44.052Z,5.63
2023-05-02T05:49:44.087Z,5.63
2023-05-02T05:50:44.116Z,5.63
2023-05-02T05:51:44.147Z,5.63
2023-05-02T05:52:44.180Z,5.63
2023-05-02T05:53:44.232Z,5.63
2023-05-02T05:54:44.245Z,5.63
2023-05-02T05:55:44.286Z,5.63
2023-05-02T05:56:44.332Z,5.63
2023-05-02T05:57:44.345Z,5.63
2023-05-02T05:58:44.373Z,5.63
2023-05-02T05:59:44.414Z,5.63
2023-05-02T06:00:44.436Z,5.63
2023-05-02T06:01:44.470Z,5.63
2023-05-02T06:02:44.674Z,5.63
2023-05-02T06:03:44.626Z,5.63
2023-05-02T06:04:44.651Z,5.63
2023-05-02T06:05:44.598Z,5.63
2023-05-02T06:06:44.679Z,5.63
2023-05-02T06:07:44.665Z,5.63
2023-05-02T06:08:44.693Z,5.63
2023-05-02T06:09:44.728Z,5.63
2023-05-02T06:10:44.760Z,5.63
2023-05-02T06:11:44.791Z,5.63
2023-05-02T06:12:46.598Z,5.63
2023-05-02T06:13:44.859Z,5.63
2023-05-02T06:14:44.912Z,5.63
2023-05-02T06:15:44.990Z,5.63
2023-05-02T06:16:44.956Z,5.63
2023-05-02T06:17:45.059Z,5.63
2023-05-02T06:18:45.013Z,5.63
2023-05-02T06:19:45.046Z,5.63
2023-05-02T06:20:45.081Z,5.63
2023-05-02T06:21:45.124Z,11.25
2023-05-02T06:22:45.145Z,11.25
2023-05-02T06:23:45.176Z,11.25
2023-05-02T06:24:45.210Z,11.25
2023-05-02T06:25:45.283Z,11.25
2023-05-02T06:26:45.283Z,11.25
2023-05-02T06:27:45.307Z,11.25
2023-05-02T06:28:45.339Z,11.25
2023-05-02T06:29:45.370Z,11.25
2023-05-02T06:30:45.481Z,11.25
2023-05-02T06:31:45.479Z,11.25
2023-05-02T06:32:45.484Z,11.25
2023-05-02T06:33:45.504Z,11.25
2023-05-02T06:34:45.535Z,11.25
2023-05-02T06:35:45.572Z,11.25
2023-05-02T06:36:45.608Z,11.25
2023-05-02T06:37:45.630Z,11.25
2023-05-02T06:38:45.660Z,11.25
2023-05-02T06:39:45.692Z,11.25
2023-05-02T06:40:45.737Z,11.25
2023-05-02T06:41:45.755Z,11.25
2023-05-02T06:42:45.802Z,11.25
2023-05-02T06:43:45.820Z,11.25
2023-05-02T06:44:45.856Z,11.25
2023-05-02T06:45:45.908Z,11.25
2023-05-02T06:46:46.106Z,11.25
2023-05-02T06:47:45.983Z,11.25
2023-05-02T06:48:45.989Z,11.25
2023-05-02T06:49:46.018Z,11.25
2023-05-02T06:50:46.053Z,11.25
2023-05-02T06:51:46.104Z,11.25
2023-05-02T06:52:46.118Z,11.25
2023-05-02T06:53:46.152Z,11.25
2023-05-02T06:54:46.184Z,11.25
2023-05-02T06:55:46.216Z,11.25
2023-05-02T06:56:46.256Z,11.25
2023-05-02T06:57:46.346Z,11.25
2023-05-02T06:58:46.321Z,11.25
2023-05-02T06:59:46.346Z,11.25
2023-05-02T07:00:46.404Z,11.25
2023-05-02T07:01:46.415Z,11.25
2023-05-02T07:02:46.502Z,11.25
2023-05-02T07:03:46.492Z,16.88
2023-05-02T07:04:46.718Z,16.88
2023-05-02T07:05:46.548Z,16.88
2023-05-02T07:06:46.622Z,16.88
2023-05-02T07:07:46.608Z,16.88
2023-05-02T07:08:46.641Z,16.88
2023-05-02T07:09:46.682Z,16.88
2023-05-02T07:10:46.711Z,16.88
2023-05-02T07:11:46.750Z,16.88
2023-05-02T07:12:46.778Z,16.88
2023-05-02T07:13:46.812Z,16.88
2023-05-02T07:14:46.851Z,16.88
2023-05-02T07:15:46.911Z,16.88
2023-05-02T07:16:46.988Z,16.88
2023-05-02T07:17:46.973Z,16.88
2023-05-02T07:18:46.998Z,16.88
2023-05-02T07:19:47.022Z,16.88
2023-05-02T07:20:47.040Z,16.88
2023-05-02T07:21:47.073Z,16.88
2023-05-02T07:22:47.104Z,22.50
2023-05-02T07:23:47.146Z,16.88
2023-05-02T07:24:47.180Z,16.88
2023-05-02T07:25:47.209Z,16.88
2023-05-02T07:26:47.249Z,22.50
2023-05-02T07:27:47.270Z,22.50
2023-05-02T07:28:47.307Z,16.88
2023-05-02T07:29:47.348Z,16.88
2023-05-02T07:30:47.376Z,16.88
2023-05-02T07:31:47.432Z,11.25
2023-05-02T07:32:47.476Z,16.88
2023-05-02T07:33:47.486Z,16.88
2023-05-02T07:34:47.525Z,16.88
2023-05-02T07:35:47.547Z,16.88
2023-05-02T07:36:47.571Z,11.25
2023-05-02T07:37:47.617Z,11.25
2023-05-02T07:38:47.643Z,11.25
2023-05-02T07:39:47.673Z,11.25
2023-05-02T07:40:47.711Z,11.25
2023-05-02T07:41:47.744Z,11.25
2023-05-02T07:42:47.778Z,11.25
2023-05-02T07:43:47.814Z,11.25
2023-05-02T07:44:47.846Z,11.25
2023-05-02T07:45:47.931Z,11.25
2023-05-02T07:46:48.146Z,11.25
2023-05-02T07:47:47.971Z,5.63
2023-05-02T07:48:48.008Z,5.63
2023-05-02T07:49:48.030Z,5.63
2023-05-02T07:50:48.056Z,5.63
2023-05-02T07:51:48.083Z,5.63
2023-05-02T07:52:48.122Z,5.63
2023-05-02T07:53:48.147Z,5.63
2023-05-02T07:54:48.190Z,5.63
2023-05-02T07:55:48.225Z,5.63
2023-05-02T07:56:48.269Z,5.63
2023-05-02T07:57:48.286Z,5.63
2023-05-02T07:58:48.316Z,5.63
2023-05-02T07:59:48.358Z,5.63
2023-05-02T08:00:48.396Z,5.63
2023-05-02T08:01:48.421Z,5.63
2023-05-02T08:02:48.565Z,5.63
2023-05-02T08:03:48.669Z,5.63
2023-05-02T08:04:48.577Z,5.63
2023-05-02T08:05:48.552Z,5.63
2023-05-02T08:06:48.651Z,5.63
2023-05-02T08:07:48.633Z,5.63
2023-05-02T08:08:48.657Z,11.25
2023-05-02T08:09:48.738Z,11.25
2023-05-02T08:10:48.725Z,11.25
2023-05-02T08:11:48.777Z,11.25
2023-05-02T08:12:48.866Z,11.25
2023-05-02T08:13:48.828Z,11.25
2023-05-02T08:14:48.868Z,11.25
2023-05-02T08:15:48.925Z,11.25
2023-05-02T08:16:49.127Z,11.25
2023-05-02T08:17:49.032Z,11.25
2023-05-02T08:18:48.992Z,11.25
2023-05-02T08:19:49.028Z,11.25
2023-05-02T08:20:49.061Z,11.25
2023-05-02T08:21:49.107Z,11.25
2023-05-02T08:22:49.183Z,11.25
2023-05-02T08:23:49.162Z,11.25
2023-05-02T08:24:49.199Z,11.25
2023-05-02T08:25:49.228Z,11.25
2023-05-02T08:26:49.268Z,5.63
2023-05-02T08:27:49.308Z,5.63
2023-05-02T08:28:49.327Z,5.63
2023-05-02T08:29:49.366Z,5.63
2023-05-02T08:30:49.398Z,5.63
2023-05-02T08:31:49.470Z,5.63
2023-05-02T08:32:49.515Z,5.63
2023-05-02T08:33:49.502Z,5.63
2023-05-02T08:34:49.544Z,5.63
2023-05-02T08:35:49.572Z,0.00
2023-05-02T08:36:49.598Z,0.00
2023-05-02T08:37:49.635Z,0.00
2023-05-02T08:38:49.670Z,0.00
2023-05-02T08:39:49.704Z,0.00
2023-05-02T08:40:49.744Z,0.00
2023-05-02T08:41:49.768Z,0.00
2023-05-02T08:42:49.804Z,0.00
2023-05-02T08:43:49.841Z,0.00
2023-05-02T08:44:49.879Z,5.63
2023-05-02T08:45:49.907Z,5.63
2023-05-02T08:46:49.997Z,5.63
2023-05-02T08:47:50.014Z,5.63
2023-05-02T08:48:50.017Z,5.63
2023-05-02T08:49:50.071Z,5.63
2023-05-02T08:50:50.071Z,5.63
2023-05-02T08:51:50.101Z,5.63
2023-05-02T08:52:50.136Z,5.63
2023-05-02T08:53:50.171Z,5.63
2023-05-02T08:54:50.210Z,5.63
2023-05-02T08:55:50.236Z,5.63
2023-05-02T08:56:50.268Z,5.63
2023-05-02T08:57:50.304Z,5.63
2023-05-02T08:58:50.347Z,5.63
2023-05-02T08:59:50.374Z,5.63
2023-05-02T09:00:50.429Z,5.63
2023-05-02T09:01:50.490Z,5.63
2023-05-02T09:02:50.522Z,5.63
2023-05-02T09:03:50.570Z,5.63
2023-05-02T09:04:50.582Z,5.63
2023-05-02T09:05:50.572Z,5.63
2023-05-02T09:06:50.624Z,5.63
2023-05-02T09:07:50.650Z,11.25
2023-05-02T09:08:50.675Z,11.25
2023-05-02T09:09:50.705Z,11.25
2023-05-02T09:10:50.741Z,16.88
2023-05-02T09:11:50.771Z,11.25
2023-05-02T09:12:50.814Z,16.88
2023-05-02T09:13:50.843Z,16.88
2023-05-02T09:14:50.871Z,22.50
2023-05-02T09:15:50.909Z,22.50
2023-05-02T09:16:50.968Z,16.88
2023-05-02T09:17:50.994Z,16.88
2023-05-02T09:18:51.009Z,11.25
2023-05-02T09:19:51.054Z,11.25
2023-05-02T09:20:51.078Z,5.63
2023-05-02T09:21:51.106Z,5.63
2023-05-02T09:22:51.153Z,5.63
2023-05-02T09:23:51.179Z,5.63
2023-05-02T09:24:51.213Z,5.63
2023-05-02T09:25:51.244Z,5.63
2023-05-02T09:26:51.288Z,5.63
2023-05-02T09:27:51.310Z,5.63
2023-05-02T09:28:51.375Z,5.63
2023-05-02T09:29:51.377Z,5.63
2023-05-02T09:30:51.493Z,5.63
2023-05-02T09:31:56.336Z,5.63
2023-05-02T09:32:51.525Z,5.63
2023-05-02T09:33:51.521Z,5.63
2023-05-02T09:34:51.550Z,5.63
2023-05-02T09:35:51.580Z,5.63
2023-05-02T09:36:51.616Z,5.63
2023-05-02T09:37:51.650Z,5.63
2023-05-02T09:38:51.689Z,5.63
2023-05-02T09:39:51.719Z,5.63
2023-05-02T09:40:51.759Z,5.63
2023-05-02T09:41:51.786Z,5.63
2023-05-02T09:42:51.838Z,5.63
2023-05-02T09:43:51.848Z,5.63
2023-05-02T09:44:51.882Z,11.25
2023-05-02T09:45:51.938Z,11.25
2023-05-02T09:46:51.973Z,11.25
2023-05-02T09:47:52.018Z,11.25
2023-05-02T09:48:52.026Z,11.25
2023-05-02T09:49:52.056Z,11.25
2023-05-02T09:50:52.092Z,11.25
2023-05-02T09:51:52.142Z,11.25
2023-05-02T09:52:52.162Z,16.88
2023-05-02T09:53:52.183Z,16.88
2023-05-02T09:54:52.314Z,22.50
2023-05-02T09:55:52.253Z,22.50
2023-05-02T09:56:52.290Z,22.50
2023-05-02T09:57:52.318Z,28.13
2023-05-02T09:58:52.470Z,22.50
2023-05-02T09:59:52.388Z,22.50
2023-05-02T10:00:52.429Z,22.50
2023-05-02T10:01:52.531Z,16.88
2023-05-02T10:02:52.559Z,16.88
2023-05-02T10:03:52.554Z,11.25
2023-05-02T10:04:52.565Z,11.25
2023-05-02T10:05:52.592Z,5.63
2023-05-02T10:06:52.712Z,5.63
2023-05-02T10:07:52.673Z,5.63
2023-05-02T10:08:52.708Z,5.63
2023-05-02T10:09:52.730Z,5.63
2023-05-02T10:10:52.762Z,5.63
2023-05-02T10:11:52.794Z,5.63
2023-05-02T10:12:52.830Z,5.63
2023-05-02T10:13:52.880Z,5.63
2023-05-02T10:14:52.904Z,5.63
2023-05-02T10:15:53.005Z,5.63
2023-05-02T10:16:52.968Z,5.63
2023-05-02T10:17:53.003Z,11.25
2023-05-02T10:18:53.033Z,11.25
2023-05-02T10:19:53.074Z,16.88
2023-05-02T10:20:53.102Z,22.50
2023-05-02T10:21:53.153Z,28.13
2023-05-02T10:22:53.169Z,22.50
2023-05-02T10:23:53.207Z,22.50
2023-05-02T10:24:53.242Z,22.50
2023-05-02T10:25:53.286Z,22.50
2023-05-02T10:26:53.305Z,16.88
2023-05-02T10:27:53.354Z,11.25
2023-05-02T10:28:53.379Z,11.25
2023-05-02T10:29:53.420Z,5.63
2023-05-02T10:30:53.446Z,5.63
2023-05-02T10:31:53.517Z,5.63
2023-05-02T10:32:53.629Z,5.63
2023-05-02T10:33:53.543Z,5.63
2023-05-02T10:34:53.577Z,5.63
2023-05-02T10:35:53.609Z,11.25
2023-05-02T10:36:53.649Z,11.25
2023-05-02T10:37:53.682Z,11.25
2023-05-02T10:38:53.715Z,11.25
2023-05-02T10:39:53.747Z,11.25
2023-05-02T10:40:54.378Z,11.25
2023-05-02T10:41:53.819Z,11.25
2023-05-02T10:42:53.852Z,11.25
2023-05-02T10:43:53.884Z,11.25
2023-05-02T10:44:53.912Z,11.25
2023-05-02T10:45:53.961Z,11.25
2023-05-02T10:46:54.041Z,11.25
2023-05-02T10:47:54.071Z,11.25
2023-05-02T10:48:54.047Z,11.25
2023-05-02T10:49:54.090Z,11.25
2023-05-02T10:50:54.116Z,11.25
2023-05-02T10:51:54.165Z,5.63
2023-05-02T10:52:54.181Z,5.63
2023-05-02T10:53:54.222Z,5.63
2023-05-02T10:54:54.259Z,5.63
2023-05-02T10:55:54.288Z,5.63
2023-05-02T10:56:54.320Z,5.63
2023-05-02T10:57:54.351Z,5.63
2023-05-02T10:58:54.382Z,5.63
2023-05-02T10:59:54.419Z,5.63
2023-05-02T11:00:54.481Z,5.63
2023-05-02T11:01:54.527Z,5.63
2023-05-02T11:02:54.653Z,11.25
2023-05-02T11:03:54.554Z,11.25
2023-05-02T11:04:54.585Z,11.25
2023-05-02T11:05:54.625Z,5.63
2023-05-02T11:06:54.650Z,5.63
2023-05-02T11:07:54.697Z,5.63
2023-05-02T11:08:54.732Z,5.63
2023-05-02T11:09:54.759Z,5.63
2023-05-02T11:10:54.786Z,5.63
2023-05-02T11:11:54.823Z,5.63
2023-05-02T11:12:54.854Z,11.25
2023-05-02T11:13:54.888Z,11.25
2023-05-02T11:14:54.921Z,11.25
2023-05-02T11:15:54.959Z,16.88
2023-05-02T11:16:55.100Z,16.88
2023-05-02T11:17:55.096Z,16.88
2023-05-02T11:18:55.059Z,16.88
2023-05-02T11:19:55.087Z,16.88
2023-05-02T11:20:55.128Z,16.88
2023-05-02T11:21:55.160Z,16.88
2023-05-02T11:22:55.213Z,16.88
2023-05-02T11:23:55.220Z,11.25
2023-05-02T11:24:55.277Z,11.25
2023-05-02T11:25:55.290Z,16.88
2023-05-02T11:26:55.320Z,16.88
2023-05-02T11:27:55.354Z,16.88
2023-05-02T11:28:55.389Z,16.88
2023-05-02T11:29:55.420Z,16.88
2023-05-02T11:30:56.141Z,16.88
2023-05-02T11:31:55.499Z,22.50
2023-05-02T11:32:55.563Z,22.50
2023-05-02T11:33:55.556Z,22.50
2023-05-02T11:34:55.612Z,16.88
2023-05-02T11:35:55.621Z,16.88
2023-05-02T11:36:55.654Z,16.88
2023-05-02T11:37:55.702Z,16.88
2023-05-02T11:38:55.726Z,16.88
2023-05-02T11:39:55.767Z,16.88
2023-05-02T11:40:55.788Z,16.88
2023-05-02T11:41:55.823Z,16.88
2023-05-02T11:42:55.854Z,16.88
2023-05-02T11:43:55.887Z,16.88
2023-05-02T11:44:55.926Z,16.88
2023-05-02T11:45:55.967Z,16.88
2023-05-02T11:46:55.985Z,16.88
2023-05-02T11:47:56.083Z,16.88
2023-05-02T11:48:56.065Z,11.25
2023-05-02T11:49:56.100Z,16.88
2023-05-02T11:50:56.132Z,16.88
2023-05-02T11:51:56.174Z,16.88
2023-05-02T11:52:56.190Z,22.50
2023-05-02T11:53:56.223Z,16.88
2023-05-02T11:54:56.252Z,16.88
2023-05-02T11:55:56.287Z,22.50
2023-05-02T11:56:56.332Z,16.88
2023-05-02T11:57:56.355Z,16.88
2023-05-02T11:58:56.386Z,11.25
2023-05-02T11:59:56.423Z,11.25
2023-05-02T12:00:56.459Z,11.25
2023-05-02T12:01:56.492Z,11.25
2023-05-02T12:02:56.648Z,11.25
2023-05-02T12:03:56.616Z,11.25
2023-05-02T12:04:56.589Z,11.25
2023-05-02T12:05:56.664Z,11.25
2023-05-02T12:06:56.694Z,11.25
2023-05-02T12:07:56.686Z,11.25
2023-05-02T12:08:56.731Z,11.25
2023-05-02T12:09:56.775Z,11.25
2023-05-02T12:10:56.807Z,16.88
2023-05-02T12:11:56.818Z,16.88
2023-05-02T12:12:56.887Z,16.88
2023-05-02T12:13:56.938Z,16.88
2023-05-02T12:14:56.919Z,16.88
2023-05-02T12:15:56.984Z,16.88
2023-05-02T12:16:56.987Z,16.88
2023-05-02T12:17:57.034Z,16.88
2023-05-02T12:18:57.051Z,16.88
2023-05-02T12:19:57.088Z,16.88
2023-05-02T12:20:57.123Z,16.88
2023-05-02T12:21:57.165Z,16.88
2023-05-02T12:22:57.196Z,16.88
2023-05-02T12:23:57.265Z,16.88
2023-05-02T12:24:57.262Z,16.88
2023-05-02T12:25:57.295Z,16.88
2023-05-02T12:26:57.317Z,22.50
2023-05-02T12:27:57.350Z,22.50
2023-05-02T12:28:57.383Z,22.50
2023-05-02T12:29:57.428Z,22.50
2023-05-02T12:30:57.450Z,22.50
2023-05-02T12:31:57.571Z,16.88
2023-05-02T12:32:57.563Z,16.88
2023-05-02T12:33:57.830Z,22.50
2023-05-02T12:34:57.580Z,22.50
2023-05-02T12:35:57.615Z,22.50
2023-05-02T12:36:57.649Z,22.50
2023-05-02T12:37:57.697Z,22.50
2023-05-02T12:38:57.746Z,22.50
2023-05-02T12:39:57.778Z,22.50
2023-05-02T12:40:57.877Z,22.50
2023-05-02T12:41:57.818Z,28.13
2023-05-02T12:42:57.850Z,28.13
2023-05-02T12:43:57.893Z,33.75
2023-05-02T12:44:57.922Z,33.75
2023-05-02T12:45:57.968Z,33.75
2023-05-02T12:46:57.999Z,39.38
2023-05-02T12:47:58.073Z,39.38
2023-05-02T12:48:58.054Z,45.00
2023-05-02T12:49:58.101Z,39.38
2023-05-02T12:50:58.120Z,33.75
2023-05-02T12:51:58.147Z,33.75
2023-05-02T12:52:58.184Z,39.38
2023-05-02T12:53:58.216Z,50.63
2023-05-02T12:54:58.260Z,39.38
2023-05-02T12:55:58.280Z,61.88
2023-05-02T12:56:58.312Z,61.88
2023-05-02T12:57:58.351Z,56.25
2023-05-02T12:58:58.377Z,45.00
2023-05-02T12:59:58.434Z,50.63
2023-05-02T13:00:58.472Z,33.75
2023-05-02T13:01:58.483Z,33.75
2023-05-02T13:02:58.600Z,33.75
2023-05-02T13:03:58.690Z,33.75
2023-05-02T13:04:58.577Z,33.75
2023-05-02T13:05:58.615Z,33.75
2023-05-02T13:06:58.786Z,33.75
2023-05-02T13:07:58.693Z,33.75
2023-05-02T13:08:58.720Z,33.75
2023-05-02T13:09:58.938Z,28.13